SJX2552 RCKH-RCTP
Flight info
| Callsign | SJX2552 |
|---|---|
| Flight time | 0h 46m |
| Altitude | 23000 |
| Route | TNN2G TNN TNN1A |
| Aircraft | A35K/H-SDE2E3GHIJ3J4J5LM1ORWXY/LB1D1 |
Departure
| Time | 2026-05-05 07:29 |
|---|---|
| Airport | Kaohsiung International Airport (RCKH) |
Arrival
| Time | 2026-05-05 08:16 |
|---|---|
| Airport | Taiwan Taoyuan International Airport (RCTP) |
| Time | Latitude | Longitude | Altitude | Speed | Heading |
|---|---|---|---|---|---|
| 2026-05-05 07:00 | 22.57325 | 120.33982 | 44 ft | 0 kts | 271° |
| 2026-05-05 07:01 | 22.57325 | 120.33983 | 44 ft | 0 kts | 271° |
| 2026-05-05 07:11 | 22.57325 | 120.34002 | 44 ft | 3 kts | 273° |
| 2026-05-05 07:11 | 22.57323 | 120.34024 | 42 ft | 3 kts | 274° |
| 2026-05-05 07:11 | 22.57321 | 120.34039 | 42 ft | 3 kts | 296° |
| 2026-05-05 07:11 | 22.57310 | 120.34056 | 41 ft | 3 kts | 332° |
| 2026-05-05 07:12 | 22.57284 | 120.34061 | 52 ft | 3 kts | 20° |
| 2026-05-05 07:12 | 22.57273 | 120.34055 | 62 ft | 3 kts | 21° |
| 2026-05-05 07:12 | 22.57259 | 120.34051 | 39 ft | 0 kts | 1° |
| 2026-05-05 07:15 | 22.57265 | 120.34052 | 63 ft | 3 kts | 1° |
| 2026-05-05 07:15 | 22.57305 | 120.34051 | 41 ft | 8 kts | 0° |
| 2026-05-05 07:16 | 22.57370 | 120.34053 | 44 ft | 8 kts | 1° |
| 2026-05-05 07:16 | 22.57410 | 120.34014 | 44 ft | 10 kts | 287° |
| 2026-05-05 07:16 | 22.57414 | 120.33921 | 44 ft | 14 kts | 270° |
| 2026-05-05 07:16 | 22.57417 | 120.33800 | 44 ft | 16 kts | 271° |
| 2026-05-05 07:17 | 22.57419 | 120.33714 | 44 ft | 12 kts | 271° |
| 2026-05-05 07:17 | 22.57457 | 120.33649 | 44 ft | 12 kts | 320° |
| 2026-05-05 07:17 | 22.57529 | 120.33584 | 44 ft | 15 kts | 317° |
| 2026-05-05 07:17 | 22.57578 | 120.33536 | 44 ft | 0 kts | 317° |
| 2026-05-05 07:27 | 22.57589 | 120.33526 | 44 ft | 4 kts | 319° |
| 2026-05-05 07:27 | 22.57630 | 120.33500 | 44 ft | 9 kts | 345° |
| 2026-05-05 07:28 | 22.57708 | 120.33505 | 43 ft | 13 kts | 6° |
| 2026-05-05 07:28 | 22.57748 | 120.33545 | 44 ft | 8 kts | 73° |
| 2026-05-05 07:28 | 22.57750 | 120.33621 | 44 ft | 12 kts | 91° |
| 2026-05-05 07:28 | 22.57745 | 120.33812 | 45 ft | 58 kts | 92° |
| 2026-05-05 07:29 | 22.57722 | 120.34548 | 44 ft | 135 kts | 92° |
| 2026-05-05 07:29 | 22.57675 | 120.35797 | 296 ft | 180 kts | 89° |
| 2026-05-05 07:29 | 22.57628 | 120.37138 | 1158 ft | 178 kts | 92° |
| 2026-05-05 07:29 | 22.57140 | 120.38350 | 1880 ft | 180 kts | 136° |
| 2026-05-05 07:30 | 22.56013 | 120.38742 | 2617 ft | 167 kts | 189° |
| 2026-05-05 07:30 | 22.54053 | 120.37746 | 3811 ft | 153 kts | 208° |
| 2026-05-05 07:30 | 22.53110 | 120.37210 | 4298 ft | 153 kts | 206° |
| 2026-05-05 07:31 | 22.52150 | 120.36700 | 4771 ft | 154 kts | 205° |
| 2026-05-05 07:31 | 22.51178 | 120.36210 | 5218 ft | 154 kts | 204° |
| 2026-05-05 07:31 | 22.50203 | 120.35732 | 5712 ft | 154 kts | 203° |
| 2026-05-05 07:31 | 22.49218 | 120.35263 | 6172 ft | 156 kts | 203° |
| 2026-05-05 07:32 | 22.48228 | 120.34794 | 6566 ft | 160 kts | 203° |
| 2026-05-05 07:32 | 22.47150 | 120.34245 | 6797 ft | 179 kts | 209° |
| 2026-05-05 07:32 | 22.46136 | 120.33296 | 6914 ft | 206 kts | 233° |
| 2026-05-05 07:32 | 22.45599 | 120.31786 | 7097 ft | 230 kts | 263° |
| 2026-05-05 07:33 | 22.45880 | 120.30000 | 7313 ft | 255 kts | 289° |
| 2026-05-05 07:33 | 22.46663 | 120.28225 | 7620 ft | 273 kts | 295° |
| 2026-05-05 07:33 | 22.47564 | 120.26382 | 8155 ft | 280 kts | 296° |
| 2026-05-05 07:33 | 22.48476 | 120.24505 | 8832 ft | 283 kts | 295° |
| 2026-05-05 07:34 | 22.49380 | 120.22600 | 9523 ft | 286 kts | 295° |
| 2026-05-05 07:34 | 22.50296 | 120.20683 | 10159 ft | 290 kts | 296° |
| 2026-05-05 07:34 | 22.51464 | 120.18836 | 10458 ft | 309 kts | 308° |
| 2026-05-05 07:34 | 22.53169 | 120.17307 | 10663 ft | 331 kts | 327° |
| 2026-05-05 07:35 | 22.55378 | 120.16391 | 10880 ft | 352 kts | 346° |
| 2026-05-05 07:35 | 22.57833 | 120.16258 | 11257 ft | 364 kts | 359° |
| 2026-05-05 07:35 | 22.60415 | 120.16455 | 11756 ft | 370 kts | 2° |
| 2026-05-05 07:35 | 22.62994 | 120.16692 | 12253 ft | 374 kts | 1° |
| 2026-05-05 07:36 | 22.65597 | 120.16921 | 12747 ft | 377 kts | 1° |
| 2026-05-05 07:36 | 22.68225 | 120.17140 | 13241 ft | 380 kts | 1° |
| 2026-05-05 07:36 | 22.70842 | 120.17349 | 13723 ft | 384 kts | 0° |
| 2026-05-05 07:36 | 22.73512 | 120.17558 | 14193 ft | 386 kts | 0° |
| 2026-05-05 07:37 | 22.76237 | 120.17768 | 14639 ft | 389 kts | 0° |
| 2026-05-05 07:37 | 22.78944 | 120.17976 | 15103 ft | 391 kts | 0° |
| 2026-05-05 07:37 | 22.81669 | 120.18184 | 15591 ft | 394 kts | 360° |
| 2026-05-05 07:37 | 22.84419 | 120.18397 | 16104 ft | 399 kts | 359° |
| 2026-05-05 07:38 | 22.87196 | 120.18599 | 16691 ft | 401 kts | 359° |
| 2026-05-05 07:38 | 22.89963 | 120.18806 | 17173 ft | 405 kts | 359° |
| 2026-05-05 07:38 | 22.92804 | 120.19025 | 17664 ft | 408 kts | 359° |
| 2026-05-05 07:38 | 22.95617 | 120.19243 | 18117 ft | 411 kts | 359° |
| 2026-05-05 07:39 | 22.98372 | 120.19455 | 18497 ft | 413 kts | 359° |
| 2026-05-05 07:39 | 23.01350 | 120.19683 | 18908 ft | 415 kts | 359° |
| 2026-05-05 07:39 | 23.04320 | 120.19911 | 19298 ft | 418 kts | 359° |
| 2026-05-05 07:39 | 23.06282 | 120.20062 | 19561 ft | 419 kts | 359° |
| 2026-05-05 07:40 | 23.10146 | 120.20358 | 20070 ft | 422 kts | 358° |
| 2026-05-05 07:40 | 23.13084 | 120.20583 | 20432 ft | 424 kts | 358° |
| 2026-05-05 07:40 | 23.16033 | 120.20853 | 20809 ft | 428 kts | 0° |
| 2026-05-05 07:40 | 23.18999 | 120.21213 | 21175 ft | 430 kts | 1° |
| 2026-05-05 07:41 | 23.21964 | 120.21586 | 21546 ft | 432 kts | 1° |
| 2026-05-05 07:41 | 23.25039 | 120.21967 | 21919 ft | 434 kts | 0° |
| 2026-05-05 07:41 | 23.27955 | 120.22322 | 22251 ft | 436 kts | 0° |
| 2026-05-05 07:41 | 23.30969 | 120.22686 | 22595 ft | 438 kts | 0° |
| 2026-05-05 07:42 | 23.33985 | 120.23048 | 22906 ft | 440 kts | 0° |
| 2026-05-05 07:42 | 23.36095 | 120.23302 | 22989 ft | 436 kts | 0° |
| 2026-05-05 07:42 | 23.39099 | 120.23664 | 23006 ft | 432 kts | 360° |
| 2026-05-05 07:42 | 23.43049 | 120.24137 | 22997 ft | 431 kts | 360° |
| 2026-05-05 07:43 | 23.45093 | 120.24380 | 22995 ft | 431 kts | 360° |
| 2026-05-05 07:43 | 23.48973 | 120.24843 | 22988 ft | 431 kts | 360° |
| 2026-05-05 07:43 | 23.51958 | 120.25200 | 22998 ft | 431 kts | 360° |
| 2026-05-05 07:43 | 23.54951 | 120.25558 | 23008 ft | 431 kts | 360° |
| 2026-05-05 07:44 | 23.56966 | 120.25799 | 23012 ft | 431 kts | 360° |
| 2026-05-05 07:44 | 23.59920 | 120.26139 | 22974 ft | 424 kts | 359° |
| 2026-05-05 07:44 | 23.63805 | 120.26589 | 23003 ft | 427 kts | 360° |
| 2026-05-05 07:44 | 23.66722 | 120.26946 | 22994 ft | 430 kts | 0° |
| 2026-05-05 07:45 | 23.68881 | 120.27216 | 22992 ft | 431 kts | 1° |
| 2026-05-05 07:45 | 23.71707 | 120.27839 | 23001 ft | 437 kts | 9° |
| 2026-05-05 07:45 | 23.74761 | 120.28838 | 22996 ft | 439 kts | 12° |
| 2026-05-05 07:45 | 23.77681 | 120.29860 | 22995 ft | 440 kts | 12° |
| 2026-05-05 07:46 | 23.80484 | 120.30847 | 23002 ft | 439 kts | 12° |
| 2026-05-05 07:46 | 23.83628 | 120.31951 | 23013 ft | 440 kts | 11° |
| 2026-05-05 07:46 | 23.86288 | 120.32878 | 22997 ft | 440 kts | 12° |
| 2026-05-05 07:46 | 23.89239 | 120.33914 | 22999 ft | 439 kts | 12° |
| 2026-05-05 07:47 | 23.92175 | 120.34931 | 22995 ft | 438 kts | 13° |
| 2026-05-05 07:47 | 23.95028 | 120.35917 | 22996 ft | 439 kts | 13° |
| 2026-05-05 07:47 | 23.98000 | 120.36945 | 22996 ft | 440 kts | 13° |
| 2026-05-05 07:47 | 24.00799 | 120.37915 | 22997 ft | 440 kts | 13° |
| 2026-05-05 07:48 | 24.03799 | 120.38955 | 22998 ft | 440 kts | 13° |
| 2026-05-05 07:48 | 24.06568 | 120.39915 | 22997 ft | 440 kts | 13° |
| 2026-05-05 07:48 | 24.09624 | 120.40981 | 23008 ft | 441 kts | 12° |
| 2026-05-05 07:48 | 24.12531 | 120.41991 | 23007 ft | 441 kts | 12° |
| 2026-05-05 07:49 | 24.15357 | 120.42975 | 23043 ft | 442 kts | 12° |
| 2026-05-05 07:49 | 24.18487 | 120.44065 | 23013 ft | 444 kts | 13° |
| 2026-05-05 07:49 | 24.21461 | 120.45093 | 23017 ft | 447 kts | 13° |
| 2026-05-05 07:49 | 24.24388 | 120.46126 | 23003 ft | 448 kts | 14° |
| 2026-05-05 07:50 | 24.27365 | 120.47175 | 23015 ft | 447 kts | 13° |
| 2026-05-05 07:50 | 24.30393 | 120.48221 | 23018 ft | 446 kts | 13° |
| 2026-05-05 07:50 | 24.33232 | 120.49202 | 22835 ft | 440 kts | 13° |
| 2026-05-05 07:50 | 24.36192 | 120.50227 | 21977 ft | 441 kts | 13° |
| 2026-05-05 07:51 | 24.39098 | 120.51234 | 20908 ft | 450 kts | 14° |
| 2026-05-05 07:51 | 24.42092 | 120.52276 | 19936 ft | 457 kts | 14° |
| 2026-05-05 07:51 | 24.45124 | 120.53339 | 19122 ft | 458 kts | 14° |
| 2026-05-05 07:51 | 24.48151 | 120.54401 | 18425 ft | 456 kts | 15° |
| 2026-05-05 07:52 | 24.51172 | 120.55461 | 17686 ft | 452 kts | 15° |
| 2026-05-05 07:52 | 24.54430 | 120.56604 | 16936 ft | 446 kts | 15° |
| 2026-05-05 07:52 | 24.57072 | 120.57531 | 16497 ft | 437 kts | 14° |
| 2026-05-05 07:52 | 24.59911 | 120.58529 | 16239 ft | 421 kts | 14° |
| 2026-05-05 07:53 | 24.62653 | 120.59493 | 15986 ft | 407 kts | 14° |
| 2026-05-05 07:53 | 24.65303 | 120.60424 | 15747 ft | 392 kts | 14° |
| 2026-05-05 07:53 | 24.67791 | 120.61551 | 15548 ft | 383 kts | 25° |
| 2026-05-05 07:53 | 24.70224 | 120.62580 | 15428 ft | 356 kts | 4° |
| 2026-05-05 07:54 | 24.72569 | 120.62483 | 15322 ft | 325 kts | 338° |
| 2026-05-05 07:54 | 24.74416 | 120.61398 | 15220 ft | 292 kts | 310° |
| 2026-05-05 07:54 | 24.75431 | 120.59625 | 15130 ft | 265 kts | 280° |
| 2026-05-05 07:54 | 24.75391 | 120.57674 | 15014 ft | 256 kts | 250° |
| 2026-05-05 07:55 | 24.74607 | 120.55908 | 14895 ft | 258 kts | 241° |
| 2026-05-05 07:55 | 24.73659 | 120.54231 | 14755 ft | 259 kts | 237° |
| 2026-05-05 07:55 | 24.72508 | 120.52708 | 14650 ft | 261 kts | 226° |
| 2026-05-05 07:55 | 24.71002 | 120.51580 | 14515 ft | 266 kts | 209° |
| 2026-05-05 07:56 | 24.69236 | 120.50914 | 14417 ft | 269 kts | 201° |
| 2026-05-05 07:56 | 24.67424 | 120.50378 | 14304 ft | 270 kts | 199° |
| 2026-05-05 07:56 | 24.65580 | 120.49845 | 14171 ft | 270 kts | 199° |
| 2026-05-05 07:56 | 24.63744 | 120.49293 | 14068 ft | 270 kts | 200° |
| 2026-05-05 07:57 | 24.61870 | 120.48869 | 13950 ft | 274 kts | 189° |
| 2026-05-05 07:57 | 24.59931 | 120.49124 | 13835 ft | 285 kts | 166° |
| 2026-05-05 07:57 | 24.58221 | 120.50277 | 13725 ft | 297 kts | 140° |
| 2026-05-05 07:57 | 24.57094 | 120.52201 | 13583 ft | 307 kts | 113° |
| 2026-05-05 07:58 | 24.56855 | 120.54536 | 13451 ft | 314 kts | 84° |
| 2026-05-05 07:58 | 24.57610 | 120.56763 | 13326 ft | 314 kts | 54° |
| 2026-05-05 07:58 | 24.59193 | 120.58352 | 13196 ft | 307 kts | 25° |
| 2026-05-05 07:58 | 24.61165 | 120.59200 | 13072 ft | 303 kts | 13° |
| 2026-05-05 07:59 | 24.63186 | 120.59856 | 12946 ft | 303 kts | 12° |
| 2026-05-05 07:59 | 24.65183 | 120.60484 | 12821 ft | 302 kts | 12° |
| 2026-05-05 07:59 | 24.67200 | 120.61118 | 12698 ft | 300 kts | 9° |
| 2026-05-05 07:59 | 24.68739 | 120.61376 | 12582 ft | 294 kts | 358° |
| 2026-05-05 08:00 | 24.70916 | 120.62000 | 12309 ft | 303 kts | 26° |
| 2026-05-05 08:00 | 24.72442 | 120.63606 | 12076 ft | 308 kts | 54° |
| 2026-05-05 08:00 | 24.73592 | 120.65597 | 11828 ft | 308 kts | 56° |
| 2026-05-05 08:00 | 24.74837 | 120.67513 | 11590 ft | 307 kts | 50° |
| 2026-05-05 08:01 | 24.76195 | 120.69272 | 11342 ft | 305 kts | 46° |
| 2026-05-05 08:01 | 24.77653 | 120.70950 | 11101 ft | 303 kts | 43° |
| 2026-05-05 08:01 | 24.79156 | 120.72564 | 10885 ft | 301 kts | 41° |
| 2026-05-05 08:01 | 24.80679 | 120.74135 | 10649 ft | 299 kts | 40° |
| 2026-05-05 08:02 | 24.82211 | 120.75676 | 10408 ft | 298 kts | 39° |
| 2026-05-05 08:02 | 24.83768 | 120.77219 | 10164 ft | 296 kts | 39° |
| 2026-05-05 08:02 | 24.85296 | 120.78728 | 9935 ft | 295 kts | 39° |
| 2026-05-05 08:02 | 24.86822 | 120.80233 | 9681 ft | 294 kts | 39° |
| 2026-05-05 08:03 | 24.88339 | 120.81730 | 9418 ft | 292 kts | 39° |
| 2026-05-05 08:03 | 24.89846 | 120.83220 | 9216 ft | 292 kts | 40° |
| 2026-05-05 08:03 | 24.91228 | 120.84869 | 8956 ft | 297 kts | 57° |
| 2026-05-05 08:03 | 24.91859 | 120.87002 | 8727 ft | 294 kts | 86° |
| 2026-05-05 08:04 | 24.91850 | 120.89231 | 8470 ft | 289 kts | 95° |
| 2026-05-05 08:04 | 24.91717 | 120.91394 | 8217 ft | 285 kts | 96° |
| 2026-05-05 08:04 | 24.91574 | 120.93562 | 7963 ft | 282 kts | 95° |
| 2026-05-05 08:04 | 24.91452 | 120.95708 | 7765 ft | 277 kts | 95° |
| 2026-05-05 08:05 | 24.91348 | 120.97814 | 7631 ft | 278 kts | 95° |
| 2026-05-05 08:05 | 24.91320 | 120.99942 | 7429 ft | 279 kts | 84° |
| 2026-05-05 08:05 | 24.91926 | 121.01967 | 6982 ft | 279 kts | 61° |
| 2026-05-05 08:05 | 24.93056 | 121.03681 | 6458 ft | 275 kts | 47° |
| 2026-05-05 08:06 | 24.94331 | 121.05216 | 5892 ft | 268 kts | 46° |
| 2026-05-05 08:06 | 24.95556 | 121.06714 | 5322 ft | 263 kts | 47° |
| 2026-05-05 08:06 | 24.96800 | 121.08257 | 4781 ft | 259 kts | 48° |
| 2026-05-05 08:06 | 24.98013 | 121.09634 | 4194 ft | 253 kts | 33° |
| 2026-05-05 08:07 | 24.99669 | 121.10202 | 3631 ft | 241 kts | 355° |
| 2026-05-05 08:07 | 25.01148 | 121.09637 | 3088 ft | 229 kts | 318° |
| 2026-05-05 08:07 | 25.01945 | 121.08190 | 2729 ft | 209 kts | 276° |
| 2026-05-05 08:07 | 25.01638 | 121.06750 | 2708 ft | 202 kts | 238° |
| 2026-05-05 08:08 | 25.00832 | 121.05525 | 2713 ft | 198 kts | 235° |
| 2026-05-05 08:08 | 24.99991 | 121.04318 | 2698 ft | 188 kts | 226° |
| 2026-05-05 08:08 | 24.99174 | 121.03595 | 2696 ft | 186 kts | 215° |
| 2026-05-05 08:09 | 24.99080 | 121.03526 | 2699 ft | 186 kts | 214° |
| 2026-05-05 08:09 | 24.98004 | 121.02667 | 2691 ft | 186 kts | 218° |
| 2026-05-05 08:10 | 24.96912 | 121.01992 | 2674 ft | 186 kts | 195° |
| 2026-05-05 08:10 | 24.95671 | 121.02131 | 2700 ft | 178 kts | 156° |
| 2026-05-05 08:10 | 24.94681 | 121.02994 | 2701 ft | 173 kts | 136° |
| 2026-05-05 08:10 | 24.94180 | 121.04108 | 2687 ft | 175 kts | 94° |
| 2026-05-05 08:11 | 24.94527 | 121.05356 | 2702 ft | 174 kts | 59° |
| 2026-05-05 08:11 | 24.95290 | 121.06386 | 2694 ft | 173 kts | 45° |
| 2026-05-05 08:11 | 24.96109 | 121.07383 | 2696 ft | 174 kts | 47° |
| 2026-05-05 08:11 | 24.96906 | 121.08383 | 2695 ft | 174 kts | 48° |
| 2026-05-05 08:12 | 24.97694 | 121.09396 | 2697 ft | 174 kts | 48° |
| 2026-05-05 08:12 | 24.98479 | 121.10417 | 2671 ft | 174 kts | 49° |
| 2026-05-05 08:12 | 24.99256 | 121.11430 | 2481 ft | 172 kts | 49° |
| 2026-05-05 08:12 | 25.00081 | 121.12478 | 2242 ft | 169 kts | 47° |
| 2026-05-05 08:13 | 25.00782 | 121.13362 | 2043 ft | 157 kts | 47° |
| 2026-05-05 08:13 | 25.01468 | 121.14231 | 1836 ft | 147 kts | 49° |
| 2026-05-05 08:13 | 25.02129 | 121.15071 | 1662 ft | 144 kts | 49° |
| 2026-05-05 08:13 | 25.02779 | 121.15894 | 1442 ft | 143 kts | 49° |
| 2026-05-05 08:14 | 25.03405 | 121.16685 | 1271 ft | 142 kts | 49° |
| 2026-05-05 08:14 | 25.04137 | 121.17612 | 1061 ft | 142 kts | 49° |
| 2026-05-05 08:14 | 25.04736 | 121.18371 | 897 ft | 142 kts | 49° |
| 2026-05-05 08:14 | 25.05397 | 121.19207 | 692 ft | 142 kts | 49° |
| 2026-05-05 08:15 | 25.06086 | 121.20064 | 503 ft | 143 kts | 50° |
| 2026-05-05 08:15 | 25.06724 | 121.20870 | 314 ft | 139 kts | 51° |
| 2026-05-05 08:15 | 25.07361 | 121.21679 | 135 ft | 138 kts | 52° |
| 2026-05-05 08:15 | 25.07897 | 121.22370 | 108 ft | 107 kts | 49° |
| 2026-05-05 08:16 | 25.08195 | 121.22749 | 106 ft | 19 kts | 49° |
| 2026-05-05 08:16 | 25.08312 | 121.22898 | 106 ft | 29 kts | 49° |
| 2026-05-05 08:16 | 25.08415 | 121.23061 | 106 ft | 16 kts | 68° |
| 2026-05-05 08:16 | 25.08442 | 121.23173 | 106 ft | 17 kts | 77° |
| 2026-05-05 08:17 | 25.08458 | 121.23297 | 107 ft | 8 kts | 96° |
| 2026-05-05 08:17 | 25.08440 | 121.23324 | 107 ft | 8 kts | 144° |
| 2026-05-05 08:17 | 25.08376 | 121.23305 | 107 ft | 15 kts | 224° |
| 2026-05-05 08:17 | 25.08292 | 121.23196 | 107 ft | 21 kts | 229° |
| 2026-05-05 08:18 | 25.08222 | 121.23106 | 107 ft | 15 kts | 229° |
| 2026-05-05 08:18 | 25.08142 | 121.23004 | 107 ft | 20 kts | 229° |
| 2026-05-05 08:18 | 25.08070 | 121.22922 | 106 ft | 0 kts | 203° |
| 2026-05-05 08:18 | 25.08047 | 121.22923 | 107 ft | 8 kts | 171° |
| 2026-05-05 08:19 | 25.07994 | 121.22951 | 107 ft | 11 kts | 168° |
| 2026-05-05 08:19 | 25.07930 | 121.22902 | 107 ft | 14 kts | 231° |
| 2026-05-05 08:19 | 25.07873 | 121.22828 | 107 ft | 6 kts | 229° |
| 2026-05-05 08:19 | 25.07831 | 121.22802 | 107 ft | 8 kts | 185° |
| 2026-05-05 08:20 | 25.07807 | 121.22813 | 107 ft | 5 kts | 134° |
| 2026-05-05 08:20 | 25.07771 | 121.22855 | 107 ft | 9 kts | 138° |
| 2026-05-05 08:20 | 25.07764 | 121.22862 | 107 ft | 0 kts | 137° |